createdAt,value
2022-09-26T00:01:56.005Z,33.8
2022-09-26T00:07:19.640Z,33.7
2022-09-26T00:12:55.812Z,33.7
2022-09-26T04:52:01.124Z,31.4
2022-09-26T04:57:38.007Z,31.4
2022-09-26T05:03:15.022Z,31.4
2022-09-26T05:08:57.472Z,31.3
2022-09-26T05:14:43.175Z,31.3
2022-09-26T05:20:05.669Z,31.2
2022-09-26T05:25:43.857Z,31.2
2022-09-26T05:31:05.919Z,31.3
2022-09-26T05:36:32.799Z,31.3
2022-09-26T05:42:11.987Z,31.3
2022-09-26T05:47:50.226Z,31.3
2022-09-26T05:53:29.487Z,31.3
2022-09-26T05:58:52.409Z,31.3
2022-09-26T06:04:33.180Z,31.3
2022-09-26T06:10:09.666Z,31.3
2022-09-26T06:15:53.614Z,31.3
2022-09-26T06:21:34.842Z,33.3
2022-09-26T06:27:12.028Z,31.4
2022-09-26T06:32:51.042Z,31.4
2022-09-26T06:38:31.785Z,31.6
2022-09-26T06:44:12.485Z,36.4
2022-09-26T06:49:35.450Z,37.1
2022-09-26T06:55:08.264Z,36.7
2022-09-26T07:00:46.000Z,37.4
2022-09-26T07:06:14.621Z,38.2
2022-09-26T07:13:01.889Z,39.7
2022-09-26T07:18:24.779Z,37.6
2022-09-26T07:23:47.156Z,36.7
2022-09-26T07:28:55.027Z,40.2
2022-09-26T07:34:18.667Z,40.4
2022-09-26T07:39:46.746Z,39.3
2022-09-26T07:47:01.113Z,39.8
2022-09-26T07:52:14.427Z,43.8
2022-09-26T07:57:36.533Z,43
2022-09-26T08:02:59.458Z,45.6
2022-09-26T08:08:24.756Z,46.8
2022-09-26T08:13:50.157Z,47.8
2022-09-26T08:19:12.835Z,48.6
2022-09-26T08:24:34.858Z,49.2
2022-09-26T08:29:57.371Z,50
2022-09-26T08:35:21.034Z,50.6
2022-09-26T08:40:43.381Z,51
2022-09-26T08:46:06.275Z,51.4
2022-09-26T08:51:13.139Z,51.4
2022-09-26T08:56:34.744Z,53.7
2022-09-26T14:28:14.282Z,39.8
2022-09-26T14:33:22.386Z,39.6
2022-09-26T14:38:47.889Z,39.5
2022-09-26T14:44:10.699Z,39.4
2022-09-26T14:49:18.108Z,39.3
2022-09-26T14:54:40.461Z,39.2
2022-09-26T15:00:07.142Z,39.1
2022-09-26T15:05:15.067Z,38.9
2022-09-26T15:10:37.388Z,38.8
2022-09-26T15:16:00.232Z,38.7
2022-09-26T15:21:22.838Z,38.6
2022-09-26T15:26:43.799Z,38.4
2022-09-26T15:32:07.108Z,38.3
2022-09-26T15:37:30.960Z,38.2
2022-09-26T15:42:53.532Z,38.1
2022-09-26T15:48:06.589Z,38
2022-09-26T15:53:29.001Z,37.9
2022-09-26T15:59:09.990Z,37.8
2022-09-26T16:04:33.259Z,37.8
2022-09-26T16:10:15.479Z,37.6
2022-09-26T16:15:55.452Z,37.6
2022-09-26T16:21:33.677Z,37.5
2022-09-26T16:27:18.023Z,37.4
2022-09-26T16:32:56.140Z,37.3
2022-09-26T16:44:08.674Z,37.1
2022-09-26T16:49:53.257Z,37.1
2022-09-26T16:55:36.941Z,37
2022-09-26T17:01:14.433Z,36.9
2022-09-26T17:06:52.246Z,36.9
2022-09-26T17:12:30.582Z,36.8
2022-09-26T17:18:08.942Z,36.8
2022-09-26T17:24:10.966Z,36.7
2022-09-26T17:29:54.753Z,36.6
2022-09-26T17:35:33.401Z,36.5
2022-09-26T17:41:11.061Z,36.4
2022-09-26T17:57:19.404Z,36.3
2022-09-26T18:02:47.624Z,36.3
2022-09-26T18:08:25.881Z,36.3
2022-09-26T18:14:03.625Z,36.2
2022-09-26T18:19:42.542Z,36.1
2022-09-26T18:25:25.337Z,36.1
2022-09-26T18:30:47.256Z,36
